createdAt,value
2019-01-28T00:01:23.836Z,2.20
2019-01-28T00:03:27.927Z,3.80
2019-01-28T00:05:32.157Z,3.30
2019-01-28T00:07:36.301Z,1.60
2019-01-28T00:09:40.638Z,3.27
2019-01-28T00:11:45.868Z,2.60
2019-01-28T00:13:50.396Z,2.53
2019-01-28T00:15:55.295Z,2.00
2019-01-28T00:17:59.904Z,3.07
2019-01-28T00:20:05.217Z,2.63
2019-01-28T00:22:09.526Z,3.80
2019-01-28T00:24:14.498Z,1.70
2019-01-28T00:26:18.936Z,2.17
2019-01-28T00:28:22.972Z,3.53
2019-01-28T00:30:27.220Z,2.80
2019-01-28T00:32:31.408Z,2.20
2019-01-28T00:34:36.393Z,1.67
2019-01-28T00:36:40.881Z,3.23
2019-01-28T00:38:45.918Z,2.80
2019-01-28T00:40:50.460Z,1.77
2019-01-28T00:42:55.252Z,2.57
2019-01-28T00:44:59.960Z,2.50
2019-01-28T00:47:04.476Z,2.30
2019-01-28T00:49:09.408Z,2.90
2019-01-28T00:51:13.946Z,1.90
2019-01-28T00:53:18.568Z,1.97
2019-01-28T00:55:22.950Z,2.87
2019-01-28T00:57:26.868Z,3.27
2019-01-28T00:59:31.789Z,2.63
2019-01-28T01:01:35.798Z,1.50
2019-01-28T01:03:40.208Z,2.20
2019-01-28T01:05:44.578Z,2.20
2019-01-28T01:07:49.012Z,2.80
2019-01-28T01:09:53.120Z,2.70
2019-01-28T01:11:57.300Z,2.37
2019-01-28T01:14:01.748Z,2.23
2019-01-28T01:16:06.392Z,2.60
2019-01-28T01:18:11.157Z,4.27
2019-01-28T01:20:17.262Z,3.70
2019-01-28T01:22:21.203Z,2.50
2019-01-28T01:24:25.500Z,3.23
2019-01-28T01:26:30.030Z,4.20
2019-01-28T01:28:34.229Z,4.27
2019-01-28T01:30:38.493Z,2.20
2019-01-28T01:32:42.955Z,3.60
2019-01-28T01:34:47.398Z,2.50
2019-01-28T01:36:51.516Z,3.87
2019-01-28T01:38:55.680Z,4.00
2019-01-28T01:41:03.433Z,2.93
2019-01-28T01:43:07.761Z,3.57
2019-01-28T01:45:14.201Z,3.47
2019-01-28T01:47:18.294Z,3.80
2019-01-28T01:49:22.913Z,3.90
2019-01-28T01:51:27.370Z,2.30
2019-01-28T01:53:31.764Z,4.67
2019-01-28T01:55:36.454Z,4.70
2019-01-28T01:57:40.323Z,4.77
2019-01-28T01:59:44.630Z,2.97
2019-01-28T02:01:49.312Z,3.37
2019-01-28T02:03:53.679Z,3.73
2019-01-28T02:05:59.884Z,3.73
2019-01-28T02:08:05.287Z,4.90
2019-01-28T02:10:11.562Z,3.00
2019-01-28T02:12:15.533Z,5.00
2019-01-28T02:14:20.141Z,3.63
2019-01-28T02:16:25.025Z,3.47
2019-01-28T02:18:29.505Z,4.77
2019-01-28T02:20:34.293Z,3.10
2019-01-28T02:22:38.375Z,3.10
2019-01-28T02:24:42.792Z,2.70
2019-01-28T02:26:47.941Z,3.67
2019-01-28T02:29:11.485Z,3.47
2019-01-28T02:34:04.232Z,4.70
2019-01-28T02:36:27.366Z,1.90
2019-01-28T02:38:50.967Z,4.03
2019-01-28T02:41:14.669Z,5.57
2019-01-28T02:43:38.712Z,3.70
2019-01-28T02:48:57.927Z,3.03
2019-01-28T02:53:39.659Z,3.77
2019-01-28T02:58:39.435Z,3.50
2019-01-28T03:00:55.078Z,3.20
2019-01-28T03:03:11.321Z,5.10
2019-01-28T03:05:27.162Z,4.43
2019-01-28T03:07:43.159Z,4.70
2019-01-28T03:09:59.069Z,3.20
2019-01-28T03:12:15.343Z,3.70
2019-01-28T03:14:31.001Z,4.60
2019-01-28T03:16:46.972Z,4.70
2019-01-28T03:19:02.768Z,5.57
2019-01-28T03:21:19.506Z,5.93
2019-01-28T03:23:35.729Z,5.50
2019-01-28T03:25:51.726Z,5.60
2019-01-28T03:28:07.943Z,4.10
2019-01-28T03:30:23.667Z,3.17
2019-01-28T03:32:39.194Z,5.27
2019-01-28T03:34:55.351Z,3.73
2019-01-28T03:37:11.624Z,2.97
2019-01-28T03:39:27.273Z,4.43
2019-01-28T03:41:42.624Z,5.60
2019-01-28T03:43:59.401Z,5.83
2019-01-28T03:46:15.421Z,4.40
2019-01-28T03:48:31.847Z,5.47
2019-01-28T03:50:47.829Z,3.30
2019-01-28T03:53:03.251Z,5.13
2019-01-28T03:55:18.741Z,6.40
2019-01-28T03:57:35.096Z,4.97
2019-01-28T03:59:51.340Z,6.40
2019-01-28T04:02:07.797Z,5.60
2019-01-28T04:04:24.217Z,6.20
2019-01-28T04:06:39.744Z,4.67
2019-01-28T04:08:55.672Z,5.90
2019-01-28T04:11:12.422Z,3.90
2019-01-28T04:13:28.424Z,6.67
2019-01-28T04:15:44.992Z,2.07
2019-01-28T04:18:00.835Z,7.50
2019-01-28T04:20:16.863Z,6.20
2019-01-28T04:22:32.342Z,7.97
2019-01-28T04:24:48.182Z,7.60
2019-01-28T04:27:03.593Z,8.57
2019-01-28T04:29:19.789Z,7.67
2019-01-28T04:31:36.138Z,7.37
2019-01-28T04:33:52.144Z,8.47
2019-01-28T04:36:08.347Z,7.60
2019-01-28T04:38:24.205Z,6.33
2019-01-28T04:40:40.471Z,7.73
2019-01-28T04:42:56.702Z,7.70
2019-01-28T04:45:13.532Z,6.87
2019-01-28T04:47:29.123Z,7.07
2019-01-28T04:49:44.860Z,7.00
2019-01-28T04:52:01.508Z,9.40
2019-01-28T04:54:18.282Z,7.40
2019-01-28T04:56:34.515Z,9.83
2019-01-28T04:58:50.581Z,9.20
2019-01-28T05:01:06.720Z,7.30
2019-01-28T05:03:22.732Z,7.10
2019-01-28T05:05:38.870Z,7.63
2019-01-28T05:07:55.084Z,7.57
2019-01-28T05:10:10.746Z,6.87
2019-01-28T05:12:27.038Z,8.13
2019-01-28T05:14:43.313Z,6.57
2019-01-28T05:16:59.356Z,6.53
2019-01-28T05:19:15.210Z,8.30
2019-01-28T05:21:30.601Z,7.40
2019-01-28T05:23:46.964Z,7.30
2019-01-28T05:26:02.469Z,8.27
2019-01-28T05:28:18.479Z,8.43
2019-01-28T05:30:34.664Z,7.90
2019-01-28T05:32:50.469Z,8.27
2019-01-28T05:35:06.400Z,7.80
2019-01-28T05:37:22.413Z,7.27
2019-01-28T05:39:38.000Z,7.80
2019-01-28T05:41:53.521Z,7.40
2019-01-28T05:44:09.866Z,7.93
2019-01-28T05:46:25.923Z,8.70
2019-01-28T05:48:41.452Z,8.70
2019-01-28T05:50:57.328Z,9.37
2019-01-28T05:53:13.381Z,9.00
2019-01-28T05:55:29.466Z,9.50
2019-01-28T05:57:43.810Z,8.40
2019-01-28T05:59:59.817Z,9.90
2019-01-28T06:02:16.445Z,8.20
2019-01-28T06:04:32.077Z,10.67
2019-01-28T06:06:47.488Z,7.97
2019-01-28T06:09:04.912Z,8.10
2019-01-28T06:11:20.629Z,8.90
2019-01-28T06:13:37.392Z,7.97
2019-01-28T06:15:53.270Z,8.30
2019-01-28T06:18:08.993Z,9.10
2019-01-28T06:20:25.134Z,8.80
2019-01-28T06:22:41.491Z,8.33
2019-01-28T06:24:58.221Z,7.73
2019-01-28T06:27:14.024Z,6.90
2019-01-28T06:29:30.674Z,7.87
2019-01-28T06:31:46.228Z,8.13
2019-01-28T06:34:02.582Z,7.23
2019-01-28T06:36:18.472Z,8.77
2019-01-28T06:38:34.812Z,8.50
2019-01-28T06:40:50.821Z,9.67
2019-01-28T06:43:07.359Z,8.73
2019-01-28T06:45:22.709Z,8.40
2019-01-28T06:47:46.426Z,8.50
2019-01-28T06:49:56.941Z,8.23
2019-01-28T06:52:12.900Z,8.30
2019-01-28T06:54:28.350Z,9.10
2019-01-28T06:56:44.577Z,8.40
2019-01-28T06:59:00.257Z,8.27
2019-01-28T07:01:15.871Z,8.80
2019-01-28T07:03:31.481Z,9.07
2019-01-28T07:05:47.296Z,8.57
2019-01-28T07:08:03.314Z,10.20
2019-01-28T07:10:19.368Z,8.60
2019-01-28T07:12:35.326Z,8.17
2019-01-28T07:14:50.779Z,8.10
2019-01-28T07:17:06.409Z,8.60
2019-01-28T07:19:22.069Z,8.23
2019-01-28T07:21:38.189Z,8.80
2019-01-28T07:23:54.649Z,8.57
2019-01-28T07:26:11.394Z,7.93
2019-01-28T07:28:26.925Z,8.33
2019-01-28T07:30:42.345Z,8.13
2019-01-28T07:32:57.080Z,8.20
2019-01-28T07:35:21.208Z,7.10
2019-01-28T07:37:45.414Z,8.80
2019-01-28T07:40:11.357Z,8.10
2019-01-28T07:42:34.928Z,7.10
2019-01-28T07:44:58.129Z,6.83
2019-01-28T07:47:21.323Z,7.57
2019-01-28T07:49:44.543Z,7.60
2019-01-28T07:52:08.219Z,8.30
2019-01-28T07:57:15.805Z,7.07
2019-01-28T07:59:50.329Z,6.50
2019-01-28T08:01:56.388Z,7.83
2019-01-28T08:04:12.840Z,7.67
2019-01-28T08:06:28.775Z,7.40
2019-01-28T08:08:44.969Z,7.37
2019-01-28T08:11:00.356Z,6.83
2019-01-28T08:13:16.209Z,6.83
2019-01-28T08:15:32.556Z,7.43
2019-01-28T08:17:48.229Z,6.57
2019-01-28T08:20:11.347Z,7.03
2019-01-28T08:22:22.849Z,7.47
2019-01-28T08:24:39.164Z,6.37
2019-01-28T08:29:00.744Z,6.40
2019-01-28T08:31:04.877Z,7.30
2019-01-28T08:33:10.169Z,7.23
2019-01-28T08:35:14.577Z,6.93
2019-01-28T08:37:18.441Z,7.10
2019-01-28T08:39:22.608Z,6.03
2019-01-28T08:41:26.816Z,6.20
2019-01-28T08:43:30.968Z,6.70
2019-01-28T08:45:35.651Z,6.77
2019-01-28T08:47:39.712Z,6.60
2019-01-28T08:49:44.144Z,6.27
2019-01-28T08:51:48.613Z,7.20
2019-01-28T08:53:52.772Z,6.37
2019-01-28T08:55:57.336Z,5.57
2019-01-28T08:58:02.480Z,6.23
2019-01-28T09:00:10.811Z,5.80
2019-01-28T09:02:16.356Z,6.60
2019-01-28T09:04:20.661Z,6.77
2019-01-28T09:06:26.278Z,6.10
2019-01-28T09:08:30.936Z,6.30
2019-01-28T09:10:35.612Z,6.80
2019-01-28T09:12:41.920Z,5.33
2019-01-28T09:14:46.576Z,6.30
2019-01-28T09:16:51.028Z,6.83
2019-01-28T09:18:55.800Z,6.47
2019-01-28T09:21:00.225Z,6.33
2019-01-28T09:23:05.222Z,7.83
2019-01-28T09:25:09.944Z,6.97
2019-01-28T09:27:14.498Z,6.73
2019-01-28T09:29:19.912Z,7.07
2019-01-28T09:31:24.680Z,6.03
2019-01-28T09:33:29.196Z,7.27
2019-01-28T09:35:33.956Z,6.73
2019-01-28T09:37:39.145Z,6.90
2019-01-28T09:39:43.557Z,6.57
2019-01-28T09:41:48.988Z,6.90
2019-01-28T09:43:53.085Z,7.17
2019-01-28T09:45:57.280Z,6.67
2019-01-28T09:48:01.372Z,5.87
2019-01-28T09:50:07.055Z,6.40
2019-01-28T09:52:11.687Z,6.43
2019-01-28T09:54:18.592Z,7.20
2019-01-28T09:56:23.735Z,5.77
2019-01-28T09:58:27.810Z,6.50
2019-01-28T10:00:35.924Z,6.17
2019-01-28T10:02:39.922Z,6.93
2019-01-28T10:04:44.621Z,6.20
2019-01-28T10:06:48.564Z,5.93
2019-01-28T10:08:52.784Z,6.17
2019-01-28T10:10:57.192Z,6.00
2019-01-28T10:13:01.769Z,5.93
2019-01-28T10:15:08.053Z,6.30
2019-01-28T10:17:12.688Z,6.87
2019-01-28T10:19:16.994Z,5.87
2019-01-28T10:21:21.388Z,6.50
2019-01-28T10:23:26.140Z,6.00
2019-01-28T10:25:30.473Z,6.40
2019-01-28T10:27:35.273Z,6.67
2019-01-28T10:29:40.338Z,6.80
2019-01-28T10:31:44.389Z,5.73
2019-01-28T10:33:48.885Z,6.10
2019-01-28T10:35:52.928Z,6.47
2019-01-28T10:37:57.764Z,6.70
2019-01-28T10:40:02.692Z,6.67
2019-01-28T10:42:09.872Z,7.03
2019-01-28T10:44:14.420Z,6.13
2019-01-28T10:46:19.208Z,6.80
2019-01-28T10:48:23.412Z,5.83
2019-01-28T10:50:28.823Z,5.80
2019-01-28T10:52:33.008Z,5.60
2019-01-28T10:54:37.400Z,5.93
2019-01-28T10:56:41.944Z,6.17
2019-01-28T10:58:46.453Z,6.43
2019-01-28T11:00:52.092Z,5.90
2019-01-28T11:02:56.822Z,5.60
2019-01-28T11:05:00.996Z,6.57
2019-01-28T11:07:05.753Z,6.07
2019-01-28T11:09:10.311Z,5.30
2019-01-28T11:11:14.802Z,5.80
2019-01-28T11:13:19.340Z,5.80
2019-01-28T11:15:26.479Z,5.37
2019-01-28T11:17:30.688Z,5.60
2019-01-28T11:19:34.812Z,6.00
2019-01-28T11:21:38.927Z,5.53
2019-01-28T11:23:43.632Z,6.30
2019-01-28T11:25:47.745Z,6.43
2019-01-28T11:27:51.800Z,4.90
2019-01-28T11:29:56.397Z,5.03
2019-01-28T11:32:00.684Z,5.17
2019-01-28T11:34:05.357Z,5.70
2019-01-28T11:36:11.597Z,5.60
2019-01-28T11:38:16.646Z,5.37
2019-01-28T11:40:20.953Z,6.23
2019-01-28T11:42:26.136Z,7.35
2019-01-28T11:44:30.016Z,5.70
2019-01-28T11:46:34.921Z,7.50
2019-01-28T11:48:40.715Z,7.00
2019-01-28T11:50:45.501Z,5.63
2019-01-28T11:52:50.576Z,5.80
2019-01-28T11:54:54.517Z,6.00
2019-01-28T11:56:59.460Z,7.40
2019-01-28T11:59:04.476Z,6.97
2019-01-28T12:01:16.253Z,7.03
2019-01-28T12:03:21.063Z,5.80
2019-01-28T12:05:25.144Z,6.20
2019-01-28T12:07:30.198Z,5.80
2019-01-28T12:09:35.445Z,5.33
2019-01-28T12:11:39.980Z,6.33
2019-01-28T12:13:44.288Z,6.73
2019-01-28T12:15:48.892Z,8.00
2019-01-28T12:17:53.433Z,6.33
2019-01-28T12:19:57.921Z,6.90
2019-01-28T12:22:02.340Z,6.63
2019-01-28T12:24:07.300Z,8.97
2019-01-28T12:26:12.769Z,6.67
2019-01-28T12:28:17.604Z,6.70
2019-01-28T12:30:26.322Z,6.60
2019-01-28T12:32:30.307Z,6.33
2019-01-28T12:34:39.718Z,6.03
2019-01-28T12:36:41.925Z,6.67
2019-01-28T12:38:46.760Z,6.57
2019-01-28T12:40:51.828Z,6.43
2019-01-28T12:42:56.975Z,7.30
2019-01-28T12:45:01.188Z,6.90
2019-01-28T12:47:05.125Z,7.77
2019-01-28T12:49:09.163Z,6.80
2019-01-28T12:51:13.921Z,6.50
2019-01-28T12:53:18.417Z,6.77
2019-01-28T12:55:23.598Z,6.80
2019-01-28T12:57:28.712Z,7.00
2019-01-28T12:59:33.832Z,10.93
2019-01-28T13:01:38.230Z,6.90
2019-01-28T13:03:42.597Z,6.20
2019-01-28T13:05:46.752Z,6.03
2019-01-28T13:07:51.080Z,6.53
2019-01-28T13:09:55.316Z,6.00
2019-01-28T13:11:59.308Z,5.90
2019-01-28T13:14:04.287Z,6.50
2019-01-28T13:16:08.627Z,6.97
2019-01-28T13:18:12.796Z,6.07
2019-01-28T13:20:17.028Z,6.87
2019-01-28T13:22:21.088Z,6.10
2019-01-28T13:24:25.838Z,6.07
2019-01-28T13:26:29.809Z,6.80
2019-01-28T13:28:34.376Z,6.57
2019-01-28T13:30:39.404Z,6.67
2019-01-28T13:32:44.000Z,7.13
2019-01-28T13:34:48.168Z,5.47
2019-01-28T13:36:53.123Z,7.23
2019-01-28T13:38:58.988Z,6.47
2019-01-28T13:41:03.174Z,6.03
2019-01-28T13:43:07.776Z,7.13
2019-01-28T13:45:14.532Z,6.90
2019-01-28T13:47:19.293Z,7.70
2019-01-28T13:49:24.309Z,5.80
2019-01-28T13:51:29.002Z,6.97
2019-01-28T13:53:33.520Z,7.47
2019-01-28T13:55:38.284Z,7.83
2019-01-28T13:57:42.638Z,5.50
2019-01-28T13:59:47.168Z,6.87
2019-01-28T14:01:51.377Z,7.10
2019-01-28T14:03:55.636Z,7.40
2019-01-28T14:06:00.802Z,7.27
2019-01-28T14:08:06.116Z,7.50
2019-01-28T14:10:11.854Z,7.60
2019-01-28T14:12:16.204Z,7.23
2019-01-28T14:14:20.943Z,5.50
2019-01-28T14:16:24.808Z,6.33
2019-01-28T14:18:28.802Z,6.07
2019-01-28T14:20:33.788Z,6.77
2019-01-28T14:22:37.970Z,7.43
2019-01-28T14:24:42.514Z,6.00
2019-01-28T14:26:46.653Z,7.80
2019-01-28T14:28:50.796Z,7.13
2019-01-28T14:30:54.924Z,10.10
2019-01-28T14:33:00.093Z,7.30
2019-01-28T14:35:04.909Z,8.93
2019-01-28T14:37:09.603Z,8.73
2019-01-28T14:39:14.026Z,8.60
2019-01-28T14:41:18.752Z,10.20
2019-01-28T14:43:22.776Z,9.40
2019-01-28T14:45:29.895Z,9.43
2019-01-28T14:47:34.295Z,7.30
2019-01-28T14:49:39.984Z,8.70
2019-01-28T14:51:44.216Z,9.57
2019-01-28T14:53:48.328Z,10.03
2019-01-28T14:55:52.538Z,9.90
2019-01-28T14:57:57.259Z,10.60
2019-01-28T15:00:01.668Z,8.43
2019-01-28T15:02:06.032Z,9.30
2019-01-28T15:04:12.270Z,8.30
2019-01-28T15:06:17.476Z,10.03
2019-01-28T15:08:22.086Z,4.20
2019-01-28T15:10:26.626Z,9.90
2019-01-28T15:12:30.840Z,10.50
2019-01-28T15:14:34.869Z,10.37
2019-01-28T15:16:38.780Z,7.50
2019-01-28T15:18:43.042Z,9.63
2019-01-28T15:20:49.656Z,9.07
2019-01-28T15:22:53.854Z,9.23
2019-01-28T15:24:57.892Z,10.20
2019-01-28T15:27:03.041Z,10.80
2019-01-28T15:29:08.181Z,5.40
2019-01-28T15:31:12.949Z,7.23
2019-01-28T15:33:17.011Z,10.07
2019-01-28T15:35:21.372Z,8.90
2019-01-28T15:37:26.203Z,6.10
2019-01-28T15:39:30.292Z,10.47
2019-01-28T15:41:35.052Z,8.30
2019-01-28T15:43:39.612Z,10.83
2019-01-28T15:45:44.815Z,10.40
2019-01-28T15:47:50.108Z,8.83
2019-01-28T15:49:54.212Z,11.40
2019-01-28T15:52:03.035Z,5.70
2019-01-28T15:54:07.492Z,9.90
2019-01-28T15:56:11.513Z,7.00
2019-01-28T15:58:16.181Z,7.90
2019-01-28T16:00:23.161Z,7.00
2019-01-28T16:02:27.252Z,10.00
2019-01-28T16:04:31.944Z,9.47
2019-01-28T16:06:35.912Z,11.20
2019-01-28T16:08:40.315Z,7.10
2019-01-28T16:10:45.100Z,9.00
2019-01-28T16:12:50.098Z,9.90
2019-01-28T16:14:54.896Z,8.27
2019-01-28T16:16:59.965Z,9.60
2019-01-28T16:19:06.680Z,10.70
2019-01-28T16:21:11.292Z,8.10
2019-01-28T16:23:15.586Z,6.57
2019-01-28T16:25:19.823Z,10.30
2019-01-28T16:27:24.730Z,9.40
2019-01-28T16:29:29.471Z,9.50
2019-01-28T16:31:34.279Z,7.70
2019-01-28T16:33:40.195Z,9.10
2019-01-28T16:35:44.860Z,9.57
2019-01-28T16:37:49.452Z,9.87
2019-01-28T16:39:53.460Z,11.60
2019-01-28T16:41:58.004Z,7.90
2019-01-28T16:44:02.068Z,9.20
2019-01-28T16:46:06.717Z,7.60
2019-01-28T16:48:11.395Z,11.70
2019-01-28T16:50:26.529Z,8.57
2019-01-28T16:52:25.319Z,11.20
2019-01-28T16:54:30.057Z,8.13
2019-01-28T16:56:34.362Z,8.13
2019-01-28T16:58:38.382Z,7.33
2019-01-28T17:00:43.716Z,10.30
2019-01-28T17:02:48.326Z,5.77
2019-01-28T17:04:53.086Z,9.30
2019-01-28T17:06:57.372Z,7.53
2019-01-28T17:09:01.872Z,10.07
2019-01-28T17:11:06.815Z,15.63
2019-01-28T17:13:11.049Z,10.90
2019-01-28T17:15:16.205Z,8.00
2019-01-28T17:17:21.189Z,10.90
2019-01-28T17:19:25.276Z,8.60
2019-01-28T17:21:29.541Z,7.90
2019-01-28T17:23:34.667Z,6.07
2019-01-28T17:25:45.536Z,5.40
2019-01-28T17:27:50.656Z,6.00
2019-01-28T17:29:54.757Z,5.40
2019-01-28T17:31:59.321Z,4.20
2019-01-28T17:34:04.871Z,3.40
2019-01-28T17:36:09.857Z,3.30
2019-01-28T17:38:15.550Z,4.70
2019-01-28T17:40:20.996Z,3.50
2019-01-28T17:42:25.873Z,4.70
2019-01-28T17:44:32.132Z,4.53
2019-01-28T17:46:36.857Z,3.27
2019-01-28T17:48:40.750Z,5.30
2019-01-28T17:50:45.203Z,3.47
2019-01-28T17:52:49.159Z,2.93
2019-01-28T17:54:53.860Z,1.93
2019-01-28T17:56:58.825Z,4.97
2019-01-28T17:59:03.467Z,4.60
2019-01-28T18:01:07.716Z,4.37
2019-01-28T18:03:11.726Z,4.27
2019-01-28T18:05:16.885Z,3.07
2019-01-28T18:07:21.128Z,4.40
2019-01-28T18:09:25.555Z,3.20
2019-01-28T18:11:30.789Z,2.27
2019-01-28T18:13:35.117Z,4.50
2019-01-28T18:15:39.184Z,3.80
2019-01-28T18:17:43.213Z,3.40
2019-01-28T18:19:48.117Z,4.50
2019-01-28T18:21:52.558Z,4.27
2019-01-28T18:23:56.991Z,2.10
2019-01-28T18:26:02.075Z,1.77
2019-01-28T18:28:06.680Z,2.83
2019-01-28T18:30:25.060Z,2.00
2019-01-28T18:32:29.486Z,2.83
2019-01-28T18:34:33.424Z,2.67
2019-01-28T18:36:37.987Z,2.83
2019-01-28T18:38:42.548Z,2.30
2019-01-28T18:40:46.514Z,3.30
2019-01-28T18:42:51.245Z,2.33
2019-01-28T18:44:56.322Z,2.97
2019-01-28T18:47:00.696Z,2.67
2019-01-28T18:49:06.499Z,3.07
2019-01-28T18:51:11.259Z,3.17
2019-01-28T18:53:16.112Z,2.90
2019-01-28T18:55:22.081Z,3.03
2019-01-28T18:57:26.560Z,3.93
2019-01-28T18:59:30.971Z,1.60
2019-01-28T19:01:35.157Z,2.97
2019-01-28T19:03:40.208Z,3.20
2019-01-28T19:06:09.608Z,3.07
2019-01-28T19:08:36.376Z,2.77
2019-01-28T19:10:54.489Z,3.10
2019-01-28T19:13:09.356Z,2.10
2019-01-28T19:15:33.536Z,2.00
2019-01-28T19:17:57.011Z,2.30
2019-01-28T19:20:21.868Z,1.83
2019-01-28T19:22:27.660Z,2.67
2019-01-28T19:24:32.590Z,3.10
2019-01-28T19:26:36.952Z,2.13
2019-01-28T19:28:41.634Z,4.20
2019-01-28T19:30:46.201Z,3.63
2019-01-28T19:32:51.007Z,2.80
2019-01-28T19:34:55.711Z,2.50
2019-01-28T19:37:00.112Z,2.23
2019-01-28T19:39:07.193Z,3.30
2019-01-28T19:41:11.948Z,2.73
2019-01-28T19:43:16.213Z,3.93
2019-01-28T19:45:20.912Z,3.63
2019-01-28T19:47:25.579Z,2.70
2019-01-28T19:49:30.017Z,2.43
2019-01-28T19:51:34.356Z,1.90
2019-01-28T19:53:38.417Z,3.40
2019-01-28T19:55:42.749Z,2.87
2019-01-28T19:57:48.247Z,2.40
2019-01-28T19:59:52.316Z,3.30
2019-01-28T20:01:56.621Z,3.97
2019-01-28T20:04:00.862Z,2.57
2019-01-28T20:06:06.136Z,3.80
2019-01-28T20:08:10.984Z,4.20
2019-01-28T20:10:15.462Z,3.03
2019-01-28T20:12:20.378Z,2.80
2019-01-28T20:14:24.852Z,2.67
2019-01-28T20:16:29.340Z,2.43
2019-01-28T20:18:33.650Z,3.93
2019-01-28T20:20:37.889Z,3.60
2019-01-28T20:22:42.326Z,3.33
2019-01-28T20:24:47.128Z,3.03
2019-01-28T20:26:51.683Z,1.77
2019-01-28T20:28:56.221Z,2.57
2019-01-28T20:31:00.957Z,4.83
2019-01-28T20:33:05.329Z,2.80
2019-01-28T20:35:09.887Z,3.97
2019-01-28T20:37:14.236Z,2.93
2019-01-28T20:39:20.584Z,3.27
2019-01-28T20:41:25.061Z,3.03
2019-01-28T20:43:29.500Z,2.50
2019-01-28T20:45:34.558Z,3.90
2019-01-28T20:47:40.076Z,2.23
2019-01-28T20:49:44.524Z,3.70
2019-01-28T20:51:48.694Z,3.10
2019-01-28T20:53:53.377Z,3.93
2019-01-28T20:55:57.983Z,2.70
2019-01-28T20:58:02.806Z,2.70
2019-01-28T21:00:14.303Z,2.33
2019-01-28T21:02:18.368Z,2.87
2019-01-28T21:04:23.315Z,3.27
2019-01-28T21:06:28.132Z,3.10
2019-01-28T21:08:32.498Z,3.70
2019-01-28T21:10:36.552Z,3.70
2019-01-28T21:12:40.470Z,3.30
2019-01-28T21:14:45.105Z,4.10
2019-01-28T21:16:49.253Z,2.63
2019-01-28T21:18:53.341Z,1.67
2019-01-28T21:20:58.228Z,4.60
2019-01-28T21:23:02.232Z,3.10
2019-01-28T21:25:07.649Z,2.17
2019-01-28T21:27:12.511Z,2.23
2019-01-28T21:29:16.929Z,2.83
2019-01-28T21:31:21.026Z,4.23
2019-01-28T21:33:25.243Z,1.63
2019-01-28T21:35:49.952Z,1.93
2019-01-28T21:38:00.810Z,3.40
2019-01-28T21:40:06.901Z,1.97
2019-01-28T21:42:10.984Z,2.90
2019-01-28T21:44:15.590Z,3.00
2019-01-28T21:46:20.814Z,3.63
2019-01-28T21:48:25.595Z,2.77
2019-01-28T21:50:29.984Z,3.10
2019-01-28T21:52:33.836Z,1.67
2019-01-28T21:54:37.978Z,2.97
2019-01-28T21:56:41.800Z,2.73
2019-01-28T21:58:46.030Z,2.00
2019-01-28T22:00:50.293Z,2.17
2019-01-28T22:02:54.224Z,3.23
2019-01-28T22:04:58.549Z,3.20
2019-01-28T22:07:03.046Z,2.50
2019-01-28T22:09:10.484Z,3.07
2019-01-28T22:11:14.673Z,1.63
2019-01-28T22:13:18.608Z,2.70
2019-01-28T22:15:23.789Z,3.30
2019-01-28T22:17:27.680Z,2.17
2019-01-28T22:19:32.281Z,4.70
2019-01-28T22:21:36.636Z,3.07
2019-01-28T22:23:41.976Z,2.37
2019-01-28T22:25:46.112Z,2.93
2019-01-28T22:27:57.205Z,2.77
2019-01-28T22:29:56.616Z,1.97
2019-01-28T22:32:00.752Z,3.03
2019-01-28T22:34:06.007Z,2.80
2019-01-28T22:36:11.406Z,1.43
2019-01-28T22:38:19.313Z,3.63
2019-01-28T22:40:23.616Z,1.27
2019-01-28T22:42:28.156Z,2.03
2019-01-28T22:44:32.673Z,3.47
2019-01-28T22:46:36.856Z,2.63
2019-01-28T22:48:41.320Z,3.47
2019-01-28T22:50:46.440Z,2.83
2019-01-28T22:52:50.689Z,3.73
2019-01-28T22:54:55.311Z,2.30
2019-01-28T22:56:59.424Z,3.50
2019-01-28T22:59:03.646Z,3.57
2019-01-28T23:01:34.984Z,2.23
2019-01-28T23:03:38.900Z,3.70
2019-01-28T23:05:43.513Z,2.53
2019-01-28T23:07:47.620Z,4.23
2019-01-28T23:09:51.888Z,1.73
2019-01-28T23:11:56.780Z,2.47
2019-01-28T23:14:01.413Z,2.63
2019-01-28T23:16:06.275Z,1.70
2019-01-28T23:18:10.649Z,2.97
2019-01-28T23:20:15.212Z,2.53
2019-01-28T23:22:20.260Z,2.87
2019-01-28T23:24:24.448Z,2.47
2019-01-28T23:26:28.988Z,2.53
2019-01-28T23:28:33.429Z,2.47
2019-01-28T23:30:38.152Z,1.73
2019-01-28T23:32:42.716Z,1.97
2019-01-28T23:34:47.728Z,3.83
2019-01-28T23:36:51.677Z,3.00
2019-01-28T23:38:55.848Z,2.57
2019-01-28T23:41:00.841Z,2.97
2019-01-28T23:43:06.256Z,3.57
2019-01-28T23:45:12.030Z,2.10
2019-01-28T23:47:16.833Z,1.70
2019-01-28T23:49:21.337Z,2.07
2019-01-28T23:51:25.837Z,3.17
2019-01-28T23:53:30.068Z,2.43
2019-01-28T23:55:34.501Z,2.20
2019-01-28T23:57:38.609Z,1.80
2019-01-28T23:59:43.093Z,1.40
